sensor_id;sensor_type;location;lat;lon;timestamp;P1;durP1;ratioP1;P2;durP2;ratioP2
75050;SDS011;63628;47.656;11.310;2022-12-07T00:01:16;5.70;;;3.77;;
75050;SDS011;63628;47.656;11.310;2022-12-07T00:03:46;6.57;;;4.07;;
75050;SDS011;63628;47.656;11.310;2022-12-07T00:08:42;5.73;;;4.03;;
75050;SDS011;63628;47.656;11.310;2022-12-07T00:11:10;5.53;;;3.57;;
75050;SDS011;63628;47.656;11.310;2022-12-07T00:13:38;6.70;;;3.70;;
75050;SDS011;63628;47.656;11.310;2022-12-07T00:16:06;6.73;;;4.10;;
75050;SDS011;63628;47.656;11.310;2022-12-07T00:18:34;6.72;;;3.90;;
75050;SDS011;63628;47.656;11.310;2022-12-07T00:21:03;6.10;;;3.90;;
75050;SDS011;63628;47.656;11.310;2022-12-07T00:23:32;6.17;;;3.67;;
75050;SDS011;63628;47.656;11.310;2022-12-07T00:26:02;5.10;;;3.30;;
75050;SDS011;63628;47.656;11.310;2022-12-07T00:28:30;6.33;;;3.93;;
75050;SDS011;63628;47.656;11.310;2022-12-07T00:30:59;6.17;;;3.90;;
75050;SDS011;63628;47.656;11.310;2022-12-07T00:33:26;6.73;;;3.87;;
75050;SDS011;63628;47.656;11.310;2022-12-07T00:35:55;7.30;;;3.57;;
75050;SDS011;63628;47.656;11.310;2022-12-07T00:38:23;6.33;;;3.97;;
75050;SDS011;63628;47.656;11.310;2022-12-07T00:40:53;5.47;;;3.77;;
75050;SDS011;63628;47.656;11.310;2022-12-07T00:43:21;5.73;;;3.90;;
75050;SDS011;63628;47.656;11.310;2022-12-07T00:45:47;6.13;;;3.70;;
75050;SDS011;63628;47.656;11.310;2022-12-07T00:48:14;5.80;;;3.67;;
75050;SDS011;63628;47.656;11.310;2022-12-07T00:50:40;5.80;;;4.13;;
75050;SDS011;63628;47.656;11.310;2022-12-07T00:53:07;5.40;;;3.53;;
75050;SDS011;63628;47.656;11.310;2022-12-07T00:55:35;6.23;;;4.07;;
75050;SDS011;63628;47.656;11.310;2022-12-07T00:58:02;6.47;;;4.43;;
75050;SDS011;63628;47.656;11.310;2022-12-07T01:00:29;5.20;;;3.67;;
75050;SDS011;63628;47.656;11.310;2022-12-07T01:02:56;6.60;;;3.90;;
75050;SDS011;63628;47.656;11.310;2022-12-07T01:05:22;5.50;;;3.17;;
75050;SDS011;63628;47.656;11.310;2022-12-07T01:07:49;6.30;;;4.37;;
75050;SDS011;63628;47.656;11.310;2022-12-07T01:10:16;6.13;;;3.63;;
75050;SDS011;63628;47.656;11.310;2022-12-07T01:12:44;6.80;;;4.17;;
75050;SDS011;63628;47.656;11.310;2022-12-07T01:15:10;6.63;;;3.90;;
75050;SDS011;63628;47.656;11.310;2022-12-07T01:17:37;5.17;;;3.40;;
75050;SDS011;63628;47.656;11.310;2022-12-07T01:20:04;5.43;;;3.80;;
75050;SDS011;63628;47.656;11.310;2022-12-07T01:22:35;5.55;;;3.63;;
75050;SDS011;63628;47.656;11.310;2022-12-07T01:25:03;5.75;;;3.50;;
75050;SDS011;63628;47.656;11.310;2022-12-07T01:27:30;7.73;;;4.37;;
75050;SDS011;63628;47.656;11.310;2022-12-07T01:29:58;5.00;;;3.43;;
75050;SDS011;63628;47.656;11.310;2022-12-07T01:32:25;4.30;;;3.03;;
75050;SDS011;63628;47.656;11.310;2022-12-07T01:34:52;4.50;;;3.10;;
75050;SDS011;63628;47.656;11.310;2022-12-07T01:37:18;5.00;;;3.77;;
75050;SDS011;63628;47.656;11.310;2022-12-07T01:39:47;5.50;;;3.70;;
75050;SDS011;63628;47.656;11.310;2022-12-07T01:42:14;6.15;;;4.13;;
75050;SDS011;63628;47.656;11.310;2022-12-07T01:50:27;4.47;;;3.57;;
75050;SDS011;63628;47.656;11.310;2022-12-07T01:52:57;5.83;;;3.50;;
75050;SDS011;63628;47.656;11.310;2022-12-07T01:55:26;4.70;;;3.50;;
75050;SDS011;63628;47.656;11.310;2022-12-07T01:57:53;4.73;;;3.57;;
75050;SDS011;63628;47.656;11.310;2022-12-07T02:00:23;5.97;;;3.70;;
75050;SDS011;63628;47.656;11.310;2022-12-07T02:02:51;5.00;;;3.47;;
75050;SDS011;63628;47.656;11.310;2022-12-07T02:05:21;5.90;;;4.10;;
75050;SDS011;63628;47.656;11.310;2022-12-07T02:07:50;7.32;;;4.85;;
75050;SDS011;63628;47.656;11.310;2022-12-07T02:10:20;5.13;;;3.90;;
75050;SDS011;63628;47.656;11.310;2022-12-07T02:12:48;5.35;;;3.58;;
75050;SDS011;63628;47.656;11.310;2022-12-07T02:15:20;4.90;;;3.73;;
75050;SDS011;63628;47.656;11.310;2022-12-07T02:17:54;6.90;;;4.13;;
75050;SDS011;63628;47.656;11.310;2022-12-07T02:20:28;5.43;;;4.27;;
75050;SDS011;63628;47.656;11.310;2022-12-07T02:23:23;4.87;;;3.60;;
75050;SDS011;63628;47.656;11.310;2022-12-07T02:26:16;4.33;;;3.27;;
75050;SDS011;63628;47.656;11.310;2022-12-07T02:31:28;6.23;;;4.10;;
75050;SDS011;63628;47.656;11.310;2022-12-07T02:33:58;5.15;;;3.80;;
75050;SDS011;63628;47.656;11.310;2022-12-07T02:36:32;5.43;;;3.70;;
75050;SDS011;63628;47.656;11.310;2022-12-07T02:39:06;5.13;;;3.33;;
75050;SDS011;63628;47.656;11.310;2022-12-07T02:41:38;7.27;;;4.30;;
75050;SDS011;63628;47.656;11.310;2022-12-07T02:44:11;4.53;;;3.47;;
75050;SDS011;63628;47.656;11.310;2022-12-07T02:46:41;6.70;;;4.20;;
75050;SDS011;63628;47.656;11.310;2022-12-07T02:49:10;5.47;;;3.60;;
75050;SDS011;63628;47.656;11.310;2022-12-07T02:51:38;5.20;;;3.90;;
75050;SDS011;63628;47.656;11.310;2022-12-07T02:54:09;4.63;;;3.20;;
75050;SDS011;63628;47.656;11.310;2022-12-07T02:56:39;4.57;;;3.33;;
75050;SDS011;63628;47.656;11.310;2022-12-07T02:59:14;5.63;;;3.40;;
75050;SDS011;63628;47.656;11.310;2022-12-07T03:01:49;5.40;;;3.40;;
75050;SDS011;63628;47.656;11.310;2022-12-07T03:04:29;7.07;;;3.93;;
75050;SDS011;63628;47.656;11.310;2022-12-07T03:07:05;4.40;;;3.47;;
75050;SDS011;63628;47.656;11.310;2022-12-07T03:09:38;4.63;;;3.60;;
75050;SDS011;63628;47.656;11.310;2022-12-07T03:12:12;4.33;;;3.10;;
75050;SDS011;63628;47.656;11.310;2022-12-07T03:14:45;4.40;;;3.23;;
75050;SDS011;63628;47.656;11.310;2022-12-07T03:17:16;5.80;;;4.13;;
75050;SDS011;63628;47.656;11.310;2022-12-07T03:19:48;4.67;;;3.67;;
75050;SDS011;63628;47.656;11.310;2022-12-07T03:22:18;5.47;;;3.50;;
75050;SDS011;63628;47.656;11.310;2022-12-07T03:24:47;4.97;;;3.73;;
75050;SDS011;63628;47.656;11.310;2022-12-07T03:27:19;5.40;;;3.43;;
75050;SDS011;63628;47.656;11.310;2022-12-07T03:29:49;5.28;;;3.67;;
75050;SDS011;63628;47.656;11.310;2022-12-07T03:32:21;5.53;;;3.40;;
75050;SDS011;63628;47.656;11.310;2022-12-07T03:34:54;6.17;;;3.70;;
75050;SDS011;63628;47.656;11.310;2022-12-07T03:37:28;5.03;;;3.60;;
75050;SDS011;63628;47.656;11.310;2022-12-07T03:40:02;5.53;;;3.53;;
75050;SDS011;63628;47.656;11.310;2022-12-07T03:42:33;4.57;;;3.37;;
75050;SDS011;63628;47.656;11.310;2022-12-07T03:45:02;6.20;;;4.23;;
75050;SDS011;63628;47.656;11.310;2022-12-07T03:47:31;6.03;;;3.90;;
75050;SDS011;63628;47.656;11.310;2022-12-07T03:50:02;5.50;;;4.10;;
75050;SDS011;63628;47.656;11.310;2022-12-07T03:52:35;6.70;;;5.00;;
75050;SDS011;63628;47.656;11.310;2022-12-07T03:55:08;5.93;;;4.00;;
75050;SDS011;63628;47.656;11.310;2022-12-07T03:57:37;6.10;;;4.27;;
75050;SDS011;63628;47.656;11.310;2022-12-07T04:00:09;4.37;;;3.30;;
75050;SDS011;63628;47.656;11.310;2022-12-07T04:02:36;4.63;;;3.70;;
75050;SDS011;63628;47.656;11.310;2022-12-07T04:05:04;5.63;;;3.87;;
75050;SDS011;63628;47.656;11.310;2022-12-07T04:07:31;5.10;;;3.67;;
75050;SDS011;63628;47.656;11.310;2022-12-07T04:09:57;5.27;;;3.83;;
75050;SDS011;63628;47.656;11.310;2022-12-07T04:12:24;4.80;;;3.60;;
75050;SDS011;63628;47.656;11.310;2022-12-07T04:14:51;5.33;;;3.80;;
75050;SDS011;63628;47.656;11.310;2022-12-07T04:17:19;5.07;;;3.87;;
75050;SDS011;63628;47.656;11.310;2022-12-07T04:19:45;5.73;;;3.80;;
75050;SDS011;63628;47.656;11.310;2022-12-07T04:22:12;4.63;;;3.77;;
75050;SDS011;63628;47.656;11.310;2022-12-07T04:24:38;5.10;;;3.80;;
75050;SDS011;63628;47.656;11.310;2022-12-07T04:27:05;5.67;;;3.67;;
75050;SDS011;63628;47.656;11.310;2022-12-07T04:29:31;4.93;;;3.80;;
75050;SDS011;63628;47.656;11.310;2022-12-07T04:31:58;6.63;;;3.83;;
75050;SDS011;63628;47.656;11.310;2022-12-07T04:34:26;5.80;;;4.00;;
75050;SDS011;63628;47.656;11.310;2022-12-07T04:36:52;4.50;;;3.70;;
75050;SDS011;63628;47.656;11.310;2022-12-07T04:39:20;5.60;;;4.20;;
75050;SDS011;63628;47.656;11.310;2022-12-07T04:41:48;5.13;;;4.17;;
75050;SDS011;63628;47.656;11.310;2022-12-07T04:44:14;4.67;;;3.47;;
75050;SDS011;63628;47.656;11.310;2022-12-07T04:46:42;6.13;;;4.43;;
75050;SDS011;63628;47.656;11.310;2022-12-07T04:49:09;4.23;;;3.80;;
75050;SDS011;63628;47.656;11.310;2022-12-07T04:51:38;5.23;;;3.57;;
75050;SDS011;63628;47.656;11.310;2022-12-07T04:54:05;6.07;;;4.30;;
75050;SDS011;63628;47.656;11.310;2022-12-07T04:56:31;5.63;;;4.20;;
75050;SDS011;63628;47.656;11.310;2022-12-07T04:58:58;3.90;;;3.30;;
75050;SDS011;63628;47.656;11.310;2022-12-07T05:01:25;6.53;;;4.43;;
75050;SDS011;63628;47.656;11.310;2022-12-07T05:03:51;6.37;;;4.20;;
75050;SDS011;63628;47.656;11.310;2022-12-07T05:06:18;6.07;;;4.20;;
75050;SDS011;63628;47.656;11.310;2022-12-07T05:08:46;5.70;;;4.23;;
75050;SDS011;63628;47.656;11.310;2022-12-07T05:11:13;5.17;;;3.47;;
75050;SDS011;63628;47.656;11.310;2022-12-07T05:13:59;6.37;;;4.27;;
75050;SDS011;63628;47.656;11.310;2022-12-07T05:16:26;6.63;;;5.00;;
75050;SDS011;63628;47.656;11.310;2022-12-07T05:18:53;5.43;;;4.30;;
75050;SDS011;63628;47.656;11.310;2022-12-07T05:21:20;7.90;;;4.57;;
75050;SDS011;63628;47.656;11.310;2022-12-07T05:23:49;6.07;;;4.70;;
75050;SDS011;63628;47.656;11.310;2022-12-07T05:26:15;7.03;;;4.43;;
75050;SDS011;63628;47.656;11.310;2022-12-07T05:28:42;6.70;;;4.20;;
75050;SDS011;63628;47.656;11.310;2022-12-07T05:31:09;6.23;;;4.13;;
75050;SDS011;63628;47.656;11.310;2022-12-07T05:33:35;4.60;;;3.53;;
75050;SDS011;63628;47.656;11.310;2022-12-07T05:36:02;6.00;;;4.20;;
75050;SDS011;63628;47.656;11.310;2022-12-07T05:38:31;9.02;;;4.63;;
75050;SDS011;63628;47.656;11.310;2022-12-07T05:41:01;6.40;;;4.27;;
75050;SDS011;63628;47.656;11.310;2022-12-07T05:43:28;5.00;;;3.80;;
75050;SDS011;63628;47.656;11.310;2022-12-07T05:45:55;5.93;;;3.90;;
75050;SDS011;63628;47.656;11.310;2022-12-07T05:48:22;5.83;;;4.00;;
75050;SDS011;63628;47.656;11.310;2022-12-07T05:50:49;6.20;;;4.63;;
75050;SDS011;63628;47.656;11.310;2022-12-07T05:53:16;8.20;;;5.60;;
75050;SDS011;63628;47.656;11.310;2022-12-07T05:55:48;11.97;;;7.03;;
75050;SDS011;63628;47.656;11.310;2022-12-07T05:58:16;14.33;;;7.93;;
75050;SDS011;63628;47.656;11.310;2022-12-07T06:01:01;12.20;;;7.70;;
75050;SDS011;63628;47.656;11.310;2022-12-07T06:03:28;12.47;;;8.50;;
75050;SDS011;63628;47.656;11.310;2022-12-07T06:05:55;12.50;;;8.63;;
75050;SDS011;63628;47.656;11.310;2022-12-07T06:08:21;11.77;;;8.10;;
75050;SDS011;63628;47.656;11.310;2022-12-07T06:10:48;11.17;;;8.40;;
75050;SDS011;63628;47.656;11.310;2022-12-07T06:13:36;10.50;;;7.90;;
75050;SDS011;63628;47.656;11.310;2022-12-07T06:16:08;12.10;;;7.43;;
75050;SDS011;63628;47.656;11.310;2022-12-07T06:18:35;12.80;;;8.73;;
75050;SDS011;63628;47.656;11.310;2022-12-07T06:21:02;10.70;;;7.57;;
75050;SDS011;63628;47.656;11.310;2022-12-07T06:23:28;11.30;;;8.03;;
75050;SDS011;63628;47.656;11.310;2022-12-07T06:25:55;11.87;;;8.47;;
75050;SDS011;63628;47.656;11.310;2022-12-07T06:28:21;11.57;;;8.10;;
75050;SDS011;63628;47.656;11.310;2022-12-07T06:30:57;10.87;;;7.73;;
75050;SDS011;63628;47.656;11.310;2022-12-07T06:33:24;11.77;;;7.97;;
75050;SDS011;63628;47.656;11.310;2022-12-07T06:35:51;10.30;;;7.70;;
75050;SDS011;63628;47.656;11.310;2022-12-07T06:38:17;10.67;;;7.73;;
75050;SDS011;63628;47.656;11.310;2022-12-07T06:40:44;11.50;;;7.97;;
75050;SDS011;63628;47.656;11.310;2022-12-07T06:43:10;12.23;;;8.50;;
75050;SDS011;63628;47.656;11.310;2022-12-07T06:45:37;11.53;;;7.67;;
75050;SDS011;63628;47.656;11.310;2022-12-07T06:48:05;11.17;;;8.33;;
75050;SDS011;63628;47.656;11.310;2022-12-07T06:50:32;11.27;;;7.83;;
75050;SDS011;63628;47.656;11.310;2022-12-07T06:52:58;11.40;;;8.20;;
75050;SDS011;63628;47.656;11.310;2022-12-07T06:55:25;11.07;;;7.53;;
75050;SDS011;63628;47.656;11.310;2022-12-07T06:57:52;12.47;;;9.00;;
75050;SDS011;63628;47.656;11.310;2022-12-07T07:00:18;9.87;;;7.03;;
75050;SDS011;63628;47.656;11.310;2022-12-07T07:02:47;13.50;;;9.85;;
75050;SDS011;63628;47.656;11.310;2022-12-07T07:05:16;15.37;;;11.07;;
75050;SDS011;63628;47.656;11.310;2022-12-07T07:07:42;12.77;;;8.97;;
75050;SDS011;63628;47.656;11.310;2022-12-07T07:10:29;16.80;;;11.50;;
75050;SDS011;63628;47.656;11.310;2022-12-07T07:12:56;15.37;;;10.53;;
75050;SDS011;63628;47.656;11.310;2022-12-07T07:15:23;13.77;;;9.80;;
75050;SDS011;63628;47.656;11.310;2022-12-07T07:17:49;9.13;;;6.70;;
75050;SDS011;63628;47.656;11.310;2022-12-07T07:20:17;12.63;;;8.53;;
75050;SDS011;63628;47.656;11.310;2022-12-07T07:22:44;11.10;;;8.27;;
75050;SDS011;63628;47.656;11.310;2022-12-07T07:25:11;12.40;;;9.00;;
75050;SDS011;63628;47.656;11.310;2022-12-07T07:27:37;12.33;;;8.03;;
75050;SDS011;63628;47.656;11.310;2022-12-07T07:30:04;10.93;;;7.60;;
75050;SDS011;63628;47.656;11.310;2022-12-07T07:32:31;12.10;;;8.37;;
75050;SDS011;63628;47.656;11.310;2022-12-07T07:34:58;11.30;;;7.93;;
75050;SDS011;63628;47.656;11.310;2022-12-07T07:37:26;10.57;;;7.50;;
75050;SDS011;63628;47.656;11.310;2022-12-07T07:39:53;10.33;;;7.57;;
75050;SDS011;63628;47.656;11.310;2022-12-07T07:42:19;11.03;;;8.37;;
75050;SDS011;63628;47.656;11.310;2022-12-07T07:44:46;10.43;;;7.77;;
75050;SDS011;63628;47.656;11.310;2022-12-07T07:47:12;10.83;;;8.07;;
75050;SDS011;63628;47.656;11.310;2022-12-07T07:49:39;10.97;;;7.67;;
75050;SDS011;63628;47.656;11.310;2022-12-07T07:52:13;11.63;;;7.50;;
75050;SDS011;63628;47.656;11.310;2022-12-07T07:54:41;11.63;;;7.70;;
75050;SDS011;63628;47.656;11.310;2022-12-07T07:57:07;10.47;;;7.23;;
75050;SDS011;63628;47.656;11.310;2022-12-07T07:59:34;10.37;;;7.17;;
75050;SDS011;63628;47.656;11.310;2022-12-07T08:02:00;10.33;;;7.80;;
75050;SDS011;63628;47.656;11.310;2022-12-07T08:04:27;10.57;;;7.77;;
75050;SDS011;63628;47.656;11.310;2022-12-07T08:06:53;9.57;;;7.10;;
75050;SDS011;63628;47.656;11.310;2022-12-07T08:09:20;10.20;;;7.33;;
75050;SDS011;63628;47.656;11.310;2022-12-07T08:11:48;11.80;;;7.67;;
75050;SDS011;63628;47.656;11.310;2022-12-07T08:14:15;11.30;;;7.23;;
75050;SDS011;63628;47.656;11.310;2022-12-07T08:16:41;11.00;;;7.57;;
75050;SDS011;63628;47.656;11.310;2022-12-07T08:19:08;11.00;;;7.60;;
75050;SDS011;63628;47.656;11.310;2022-12-07T08:21:34;9.67;;;7.07;;
75050;SDS011;63628;47.656;11.310;2022-12-07T08:24:01;9.80;;;6.93;;
75050;SDS011;63628;47.656;11.310;2022-12-07T08:26:28;10.73;;;7.17;;
75050;SDS011;63628;47.656;11.310;2022-12-07T08:28:55;11.87;;;8.03;;
75050;SDS011;63628;47.656;11.310;2022-12-07T08:31:22;9.77;;;7.07;;
75050;SDS011;63628;47.656;11.310;2022-12-07T08:33:49;9.13;;;7.10;;
75050;SDS011;63628;47.656;11.310;2022-12-07T08:36:16;9.13;;;6.53;;
75050;SDS011;63628;47.656;11.310;2022-12-07T08:38:43;9.80;;;6.97;;
75050;SDS011;63628;47.656;11.310;2022-12-07T08:41:29;9.93;;;7.13;;
75050;SDS011;63628;47.656;11.310;2022-12-07T08:43:58;10.03;;;6.97;;
75050;SDS011;63628;47.656;11.310;2022-12-07T08:46:25;11.37;;;7.60;;
75050;SDS011;63628;47.656;11.310;2022-12-07T08:49:02;8.93;;;6.90;;
75050;SDS011;63628;47.656;11.310;2022-12-07T08:51:31;10.67;;;7.20;;
75050;SDS011;63628;47.656;11.310;2022-12-07T08:53:59;8.80;;;6.20;;
75050;SDS011;63628;47.656;11.310;2022-12-07T08:56:29;10.53;;;6.93;;
75050;SDS011;63628;47.656;11.310;2022-12-07T08:58:56;8.60;;;6.80;;
75050;SDS011;63628;47.656;11.310;2022-12-07T09:01:24;8.53;;;6.47;;
75050;SDS011;63628;47.656;11.310;2022-12-07T09:03:51;10.00;;;7.03;;
75050;SDS011;63628;47.656;11.310;2022-12-07T09:06:18;8.50;;;6.60;;
75050;SDS011;63628;47.656;11.310;2022-12-07T09:08:46;9.93;;;6.70;;
75050;SDS011;63628;47.656;11.310;2022-12-07T09:11:14;8.43;;;6.18;;
75050;SDS011;63628;47.656;11.310;2022-12-07T09:13:40;9.97;;;6.60;;
75050;SDS011;63628;47.656;11.310;2022-12-07T09:16:08;9.67;;;6.27;;
75050;SDS011;63628;47.656;11.310;2022-12-07T09:18:35;8.77;;;6.47;;
75050;SDS011;63628;47.656;11.310;2022-12-07T09:21:02;9.30;;;6.00;;
75050;SDS011;63628;47.656;11.310;2022-12-07T09:23:28;7.93;;;5.80;;
75050;SDS011;63628;47.656;11.310;2022-12-07T09:25:58;9.53;;;6.37;;
75050;SDS011;63628;47.656;11.310;2022-12-07T09:28:25;9.27;;;5.70;;
75050;SDS011;63628;47.656;11.310;2022-12-07T09:30:52;9.70;;;6.43;;
75050;SDS011;63628;47.656;11.310;2022-12-07T09:33:40;7.57;;;5.80;;
75050;SDS011;63628;47.656;11.310;2022-12-07T09:36:07;8.32;;;6.05;;
75050;SDS011;63628;47.656;11.310;2022-12-07T09:38:35;7.73;;;5.67;;
75050;SDS011;63628;47.656;11.310;2022-12-07T09:41:04;9.37;;;5.63;;
75050;SDS011;63628;47.656;11.310;2022-12-07T09:43:33;7.07;;;5.73;;
75050;SDS011;63628;47.656;11.310;2022-12-07T09:46:02;7.95;;;5.88;;
75050;SDS011;63628;47.656;11.310;2022-12-07T09:48:30;7.10;;;5.37;;
75050;SDS011;63628;47.656;11.310;2022-12-07T09:51:00;7.05;;;5.93;;
75050;SDS011;63628;47.656;11.310;2022-12-07T09:53:28;9.07;;;5.60;;
75050;SDS011;63628;47.656;11.310;2022-12-07T09:55:59;8.17;;;6.10;;
75050;SDS011;63628;47.656;11.310;2022-12-07T09:58:28;8.23;;;5.87;;
75050;SDS011;63628;47.656;11.310;2022-12-07T10:00:56;7.68;;;5.75;;
75050;SDS011;63628;47.656;11.310;2022-12-07T10:03:25;7.80;;;5.70;;
75050;SDS011;63628;47.656;11.310;2022-12-07T10:05:53;7.53;;;5.37;;
75050;SDS011;63628;47.656;11.310;2022-12-07T10:08:21;7.60;;;5.73;;
75050;SDS011;63628;47.656;11.310;2022-12-07T10:10:49;6.90;;;5.10;;
75050;SDS011;63628;47.656;11.310;2022-12-07T10:13:19;7.28;;;5.63;;
75050;SDS011;63628;47.656;11.310;2022-12-07T10:15:48;8.57;;;5.82;;
75050;SDS011;63628;47.656;11.310;2022-12-07T10:18:25;8.23;;;6.03;;
75050;SDS011;63628;47.656;11.310;2022-12-07T10:21:04;7.90;;;5.70;;
75050;SDS011;63628;47.656;11.310;2022-12-07T10:23:38;7.43;;;5.57;;
75050;SDS011;63628;47.656;11.310;2022-12-07T10:29:13;7.03;;;5.50;;
75050;SDS011;63628;47.656;11.310;2022-12-07T10:31:42;7.87;;;5.43;;
75050;SDS011;63628;47.656;11.310;2022-12-07T10:34:15;7.60;;;5.50;;
75050;SDS011;63628;47.656;11.310;2022-12-07T10:36:48;7.63;;;5.80;;
75050;SDS011;63628;47.656;11.310;2022-12-07T10:39:17;6.07;;;4.57;;
75050;SDS011;63628;47.656;11.310;2022-12-07T10:41:55;7.03;;;5.30;;
75050;SDS011;63628;47.656;11.310;2022-12-07T10:44:24;8.20;;;6.07;;
75050;SDS011;63628;47.656;11.310;2022-12-07T10:46:55;6.45;;;4.88;;
75050;SDS011;63628;47.656;11.310;2022-12-07T10:49:48;6.50;;;5.07;;
75050;SDS011;63628;47.656;11.310;2022-12-07T10:52:38;7.38;;;5.35;;
75050;SDS011;63628;47.656;11.310;2022-12-07T10:55:25;6.20;;;4.53;;
75050;SDS011;63628;47.656;11.310;2022-12-07T10:58:01;6.40;;;5.27;;
75050;SDS011;63628;47.656;11.310;2022-12-07T11:00:43;7.37;;;5.37;;
75050;SDS011;63628;47.656;11.310;2022-12-07T11:03:29;6.57;;;4.80;;
75050;SDS011;63628;47.656;11.310;2022-12-07T11:06:08;6.57;;;4.87;;
75050;SDS011;63628;47.656;11.310;2022-12-07T11:08:46;7.93;;;4.93;;
75050;SDS011;63628;47.656;11.310;2022-12-07T11:11:29;5.77;;;4.40;;
75050;SDS011;63628;47.656;11.310;2022-12-07T11:14:01;7.23;;;5.30;;
75050;SDS011;63628;47.656;11.310;2022-12-07T11:16:40;7.63;;;5.17;;
75050;SDS011;63628;47.656;11.310;2022-12-07T11:19:20;8.07;;;5.53;;
75050;SDS011;63628;47.656;11.310;2022-12-07T11:21:58;7.40;;;4.70;;
75050;SDS011;63628;47.656;11.310;2022-12-07T11:24:32;6.93;;;4.77;;
75050;SDS011;63628;47.656;11.310;2022-12-07T11:27:12;7.30;;;5.60;;
75050;SDS011;63628;47.656;11.310;2022-12-07T11:29:50;6.67;;;5.20;;
75050;SDS011;63628;47.656;11.310;2022-12-07T11:32:34;6.57;;;4.77;;
75050;SDS011;63628;47.656;11.310;2022-12-07T11:35:14;6.60;;;5.03;;
75050;SDS011;63628;47.656;11.310;2022-12-07T11:37:51;7.50;;;5.57;;
75050;SDS011;63628;47.656;11.310;2022-12-07T11:40:24;6.50;;;5.13;;
75050;SDS011;63628;47.656;11.310;2022-12-07T11:42:57;6.07;;;5.00;;
75050;SDS011;63628;47.656;11.310;2022-12-07T11:45:29;6.43;;;4.77;;
75050;SDS011;63628;47.656;11.310;2022-12-07T11:47:59;6.63;;;4.70;;
75050;SDS011;63628;47.656;11.310;2022-12-07T11:50:32;6.57;;;4.90;;
75050;SDS011;63628;47.656;11.310;2022-12-07T11:53:03;6.83;;;5.00;;
75050;SDS011;63628;47.656;11.310;2022-12-07T11:55:39;10.33;;;7.43;;
75050;SDS011;63628;47.656;11.310;2022-12-07T11:58:21;6.83;;;5.23;;
75050;SDS011;63628;47.656;11.310;2022-12-07T12:01:05;6.83;;;4.87;;
75050;SDS011;63628;47.656;11.310;2022-12-07T12:03:40;7.77;;;5.50;;
75050;SDS011;63628;47.656;11.310;2022-12-07T12:06:17;16.23;;;10.00;;
75050;SDS011;63628;47.656;11.310;2022-12-07T12:08:46;16.83;;;9.90;;
75050;SDS011;63628;47.656;11.310;2022-12-07T12:11:41;8.57;;;5.50;;
75050;SDS011;63628;47.656;11.310;2022-12-07T12:14:44;9.83;;;6.90;;
75050;SDS011;63628;47.656;11.310;2022-12-07T12:17:23;6.43;;;4.87;;
75050;SDS011;63628;47.656;11.310;2022-12-07T12:20:18;6.97;;;4.80;;
75050;SDS011;63628;47.656;11.310;2022-12-07T12:22:50;8.73;;;5.90;;
75050;SDS011;63628;47.656;11.310;2022-12-07T12:25:21;6.67;;;5.03;;
75050;SDS011;63628;47.656;11.310;2022-12-07T12:27:52;6.33;;;4.63;;
75050;SDS011;63628;47.656;11.310;2022-12-07T12:30:29;6.10;;;4.67;;
75050;SDS011;63628;47.656;11.310;2022-12-07T12:33:02;6.63;;;4.37;;
75050;SDS011;63628;47.656;11.310;2022-12-07T12:35:33;5.83;;;4.20;;
75050;SDS011;63628;47.656;11.310;2022-12-07T12:40:50;6.47;;;4.77;;
75050;SDS011;63628;47.656;11.310;2022-12-07T12:58:32;4.90;;;3.97;;
75050;SDS011;63628;47.656;11.310;2022-12-07T13:06:59;5.30;;;4.13;;
75050;SDS011;63628;47.656;11.310;2022-12-07T13:09:26;5.40;;;4.07;;
75050;SDS011;63628;47.656;11.310;2022-12-07T13:14:40;4.93;;;3.90;;
75050;SDS011;63628;47.656;11.310;2022-12-07T13:17:11;6.87;;;4.23;;
75050;SDS011;63628;47.656;11.310;2022-12-07T13:25:26;4.90;;;3.63;;
75050;SDS011;63628;47.656;11.310;2022-12-07T13:28:01;6.17;;;4.27;;
75050;SDS011;63628;47.656;11.310;2022-12-07T13:30:33;5.83;;;3.97;;
75050;SDS011;63628;47.656;11.310;2022-12-07T13:33:13;4.87;;;3.83;;
75050;SDS011;63628;47.656;11.310;2022-12-07T13:35:42;4.87;;;3.83;;
75050;SDS011;63628;47.656;11.310;2022-12-07T13:38:16;5.30;;;4.23;;
75050;SDS011;63628;47.656;11.310;2022-12-07T13:41:11;5.17;;;4.03;;
75050;SDS011;63628;47.656;11.310;2022-12-07T13:43:47;5.47;;;3.90;;
75050;SDS011;63628;47.656;11.310;2022-12-07T13:46:15;6.70;;;4.07;;
75050;SDS011;63628;47.656;11.310;2022-12-07T13:48:48;5.27;;;3.67;;
75050;SDS011;63628;47.656;11.310;2022-12-07T13:51:17;4.88;;;3.80;;
75050;SDS011;63628;47.656;11.310;2022-12-07T13:53:49;5.22;;;4.05;;
75050;SDS011;63628;47.656;11.310;2022-12-07T13:56:17;5.23;;;4.03;;
75050;SDS011;63628;47.656;11.310;2022-12-07T13:58:48;4.20;;;3.77;;
75050;SDS011;63628;47.656;11.310;2022-12-07T14:01:14;9.90;;;6.03;;
75050;SDS011;63628;47.656;11.310;2022-12-07T14:03:43;5.20;;;4.10;;
75050;SDS011;63628;47.656;11.310;2022-12-07T14:06:15;5.17;;;3.70;;
75050;SDS011;63628;47.656;11.310;2022-12-07T14:08:44;4.53;;;3.50;;
75050;SDS011;63628;47.656;11.310;2022-12-07T14:11:13;5.67;;;4.10;;
75050;SDS011;63628;47.656;11.310;2022-12-07T14:13:45;4.97;;;3.80;;
75050;SDS011;63628;47.656;11.310;2022-12-07T14:16:23;5.60;;;4.20;;
75050;SDS011;63628;47.656;11.310;2022-12-07T14:18:52;5.33;;;3.83;;
75050;SDS011;63628;47.656;11.310;2022-12-07T14:21:21;4.33;;;3.50;;
75050;SDS011;63628;47.656;11.310;2022-12-07T14:24:08;4.80;;;3.40;;
75050;SDS011;63628;47.656;11.310;2022-12-07T14:26:37;4.47;;;3.70;;
75050;SDS011;63628;47.656;11.310;2022-12-07T14:32:04;4.73;;;3.93;;
75050;SDS011;63628;47.656;11.310;2022-12-07T14:37:30;4.80;;;3.80;;
75050;SDS011;63628;47.656;11.310;2022-12-07T14:39:56;5.40;;;4.07;;
75050;SDS011;63628;47.656;11.310;2022-12-07T14:42:24;5.03;;;3.93;;
75050;SDS011;63628;47.656;11.310;2022-12-07T14:44:53;4.30;;;3.23;;
75050;SDS011;63628;47.656;11.310;2022-12-07T14:47:20;4.67;;;3.50;;
75050;SDS011;63628;47.656;11.310;2022-12-07T14:50:07;4.47;;;3.40;;
75050;SDS011;63628;47.656;11.310;2022-12-07T14:52:39;4.53;;;3.50;;
75050;SDS011;63628;47.656;11.310;2022-12-07T14:55:28;5.05;;;3.78;;
75050;SDS011;63628;47.656;11.310;2022-12-07T14:57:56;5.37;;;3.90;;
75050;SDS011;63628;47.656;11.310;2022-12-07T15:00:25;4.43;;;3.50;;
75050;SDS011;63628;47.656;11.310;2022-12-07T15:02:53;4.70;;;3.65;;
75050;SDS011;63628;47.656;11.310;2022-12-07T15:05:21;4.93;;;3.87;;
75050;SDS011;63628;47.656;11.310;2022-12-07T15:07:49;4.20;;;3.33;;
75050;SDS011;63628;47.656;11.310;2022-12-07T15:10:18;4.43;;;3.30;;
75050;SDS011;63628;47.656;11.310;2022-12-07T15:12:49;6.27;;;3.83;;
75050;SDS011;63628;47.656;11.310;2022-12-07T15:15:16;5.37;;;3.83;;
75050;SDS011;63628;47.656;11.310;2022-12-07T15:17:43;4.50;;;3.33;;
75050;SDS011;63628;47.656;11.310;2022-12-07T15:20:11;4.20;;;3.30;;
75050;SDS011;63628;47.656;11.310;2022-12-07T15:22:39;4.88;;;3.38;;
75050;SDS011;63628;47.656;11.310;2022-12-07T15:25:08;3.87;;;3.13;;
75050;SDS011;63628;47.656;11.310;2022-12-07T15:27:38;4.30;;;2.97;;
75050;SDS011;63628;47.656;11.310;2022-12-07T15:30:05;4.50;;;3.67;;
75050;SDS011;63628;47.656;11.310;2022-12-07T15:32:33;3.87;;;3.03;;
75050;SDS011;63628;47.656;11.310;2022-12-07T15:34:59;4.13;;;3.20;;
75050;SDS011;63628;47.656;11.310;2022-12-07T15:37:27;4.33;;;3.33;;
75050;SDS011;63628;47.656;11.310;2022-12-07T15:39:53;4.60;;;3.47;;
75050;SDS011;63628;47.656;11.310;2022-12-07T15:42:21;4.00;;;3.13;;